createdAt,value
2018-07-10T00:00:01.688Z,18.90
2018-07-10T00:02:41.352Z,19.00
2018-07-10T00:07:25.641Z,19.00
2018-07-10T00:10:07.837Z,18.70
2018-07-10T00:12:36.500Z,18.80
2018-07-10T00:15:04.981Z,18.60
2018-07-10T00:17:33.637Z,18.70
2018-07-10T00:22:30.388Z,18.60
2018-07-10T00:24:58.872Z,18.60
2018-07-10T00:29:56.021Z,18.70
2018-07-10T00:32:24.476Z,18.70
2018-07-10T00:34:52.992Z,18.60
2018-07-10T00:39:49.745Z,18.80
2018-07-10T00:44:46.549Z,18.60
2018-07-10T00:47:15.316Z,18.50
2018-07-10T00:49:43.992Z,18.70
2018-07-10T00:52:15.294Z,18.60
2018-07-10T00:54:43.757Z,18.60
2018-07-10T00:57:12.357Z,18.40
2018-07-10T00:59:40.914Z,18.30
2018-07-10T01:02:09.565Z,18.40
2018-07-10T01:04:38.215Z,18.40
2018-07-10T01:07:06.765Z,18.40
2018-07-10T01:09:35.191Z,18.30
2018-07-10T01:12:03.682Z,18.40
2018-07-10T01:14:32.234Z,18.40
2018-07-10T01:17:00.709Z,18.40
2018-07-10T01:19:29.245Z,18.40
2018-07-10T01:21:57.786Z,18.40
2018-07-10T01:24:26.534Z,18.50
2018-07-10T01:26:55.097Z,18.30
2018-07-10T01:29:28.794Z,18.40
2018-07-10T01:34:25.610Z,18.20
2018-07-10T01:36:55.209Z,18.30
2018-07-10T01:39:23.709Z,18.10
2018-07-10T01:41:52.351Z,18.10
2018-07-10T01:44:20.869Z,18.20
2018-07-10T01:46:49.316Z,18.00
2018-07-10T01:49:17.814Z,17.90
2018-07-10T01:51:46.354Z,17.90
2018-07-10T01:54:14.925Z,17.90
2018-07-10T01:56:43.506Z,17.90
2018-07-10T02:01:40.261Z,17.90
2018-07-10T02:04:09.225Z,18.00
2018-07-10T02:06:38.245Z,18.10
2018-07-10T02:11:34.820Z,18.00
2018-07-10T02:14:03.709Z,17.90
2018-07-10T02:16:32.089Z,17.90
2018-07-10T02:19:00.607Z,17.90
2018-07-10T02:21:29.413Z,18.00
2018-07-10T02:23:57.937Z,17.90
2018-07-10T02:26:27.570Z,17.80
2018-07-10T02:28:56.809Z,17.90
2018-07-10T02:31:25.338Z,17.80
2018-07-10T02:33:54.397Z,17.90
2018-07-10T02:36:24.094Z,17.90
2018-07-10T02:38:56.292Z,17.80
2018-07-10T02:46:24.774Z,17.80
2018-07-10T02:48:54.286Z,17.70
2018-07-10T02:51:23.002Z,17.60
2018-07-10T02:53:51.813Z,17.80
2018-07-10T02:56:21.385Z,17.90
2018-07-10T03:01:19.312Z,17.90
2018-07-10T03:03:49.097Z,17.90
2018-07-10T03:06:17.788Z,17.70
2018-07-10T03:08:47.311Z,17.70
2018-07-10T03:11:15.846Z,17.70
2018-07-10T03:13:44.434Z,17.60
2018-07-10T03:18:41.115Z,17.90
2018-07-10T03:21:10.083Z,18.00
2018-07-10T03:26:07.047Z,18.00
2018-07-10T03:28:35.587Z,18.00
2018-07-10T03:31:04.142Z,17.90
2018-07-10T03:33:32.995Z,18.00
2018-07-10T03:36:01.628Z,17.90
2018-07-10T03:38:30.350Z,17.90
2018-07-10T03:40:58.865Z,17.70
2018-07-10T03:43:28.114Z,17.50
2018-07-10T03:45:57.310Z,17.40
2018-07-10T03:48:26.416Z,17.40
2018-07-10T03:50:55.309Z,17.50
2018-07-10T03:53:24.584Z,17.60
2018-07-10T03:55:53.218Z,17.50
2018-07-10T03:58:21.816Z,17.50
2018-07-10T04:00:50.717Z,17.70
2018-07-10T04:03:21.745Z,17.90
2018-07-10T04:05:51.304Z,17.70
2018-07-10T04:08:19.888Z,17.70
2018-07-10T04:10:48.434Z,17.70
2018-07-10T04:13:23.572Z,17.70
2018-07-10T04:15:57.758Z,17.80
2018-07-10T04:21:07.817Z,17.70
2018-07-10T04:26:19.426Z,17.80
2018-07-10T04:29:03.388Z,18.00
2018-07-10T04:31:42.219Z,17.90
2018-07-10T04:34:10.825Z,18.00
2018-07-10T04:36:39.364Z,18.00
2018-07-10T04:39:07.893Z,17.80
2018-07-10T04:41:37.790Z,17.80
2018-07-10T04:44:12.158Z,17.90
2018-07-10T04:46:45.354Z,18.00
2018-07-10T04:49:24.301Z,17.90
2018-07-10T04:52:00.500Z,17.90
2018-07-10T04:54:43.001Z,17.80
2018-07-10T04:57:16.170Z,17.80
2018-07-10T04:59:45.848Z,17.90
2018-07-10T05:02:15.353Z,18.00
2018-07-10T05:04:43.957Z,18.00
2018-07-10T05:07:12.504Z,18.00
2018-07-10T05:09:42.489Z,18.00
2018-07-10T05:12:11.190Z,18.00
2018-07-10T05:14:43.133Z,18.20
2018-07-10T05:17:12.606Z,18.20
2018-07-10T05:19:41.480Z,18.30
2018-07-10T05:22:10.402Z,18.40
2018-07-10T05:24:39.324Z,18.40
2018-07-10T05:27:07.957Z,18.50
2018-07-10T05:29:36.589Z,18.40
2018-07-10T05:32:05.177Z,18.50
2018-07-10T05:34:37.308Z,18.50
2018-07-10T05:37:05.983Z,18.60
2018-07-10T05:39:36.707Z,18.50
2018-07-10T05:42:05.257Z,18.50
2018-07-10T05:44:34.077Z,18.30
2018-07-10T05:47:03.324Z,18.30
2018-07-10T05:49:39.781Z,18.20
2018-07-10T05:52:08.671Z,18.20
2018-07-10T05:54:38.449Z,18.20
2018-07-10T05:59:35.997Z,18.10
2018-07-10T06:02:04.691Z,18.00
2018-07-10T06:04:33.429Z,17.90
2018-07-10T06:07:03.297Z,17.90
2018-07-10T06:09:32.278Z,17.80
2018-07-10T06:12:01.609Z,17.70
2018-07-10T06:14:30.493Z,17.60
2018-07-10T06:16:59.285Z,17.70
2018-07-10T06:21:56.007Z,17.60
2018-07-10T06:24:27.821Z,17.50
2018-07-10T06:27:01.590Z,17.30
2018-07-10T06:29:40.057Z,17.20
2018-07-10T06:32:08.865Z,17.20
2018-07-10T06:34:38.825Z,17.20
2018-07-10T06:37:10.873Z,17.20
2018-07-10T06:39:40.173Z,17.20
2018-07-10T06:42:11.909Z,17.20
2018-07-10T06:44:40.540Z,17.20
2018-07-10T06:47:26.704Z,17.20
2018-07-10T06:49:55.314Z,17.10
2018-07-10T06:52:23.970Z,17.00
2018-07-10T06:55:10.718Z,17.00
2018-07-10T06:57:46.371Z,17.00
2018-07-10T07:00:15.124Z,16.80
2018-07-10T07:02:43.847Z,16.70
2018-07-10T07:05:12.541Z,16.60
2018-07-10T07:07:41.814Z,16.60
2018-07-10T07:10:11.645Z,16.60
2018-07-10T07:12:41.648Z,16.70
2018-07-10T07:15:12.235Z,16.70
2018-07-10T07:17:42.405Z,16.60
2018-07-10T07:20:10.992Z,16.50
2018-07-10T07:22:39.573Z,16.60
2018-07-10T07:25:08.375Z,16.50
2018-07-10T07:27:37.002Z,16.40
2018-07-10T07:30:05.520Z,16.40
2018-07-10T07:32:34.020Z,16.40
2018-07-10T07:35:02.608Z,16.40
2018-07-10T07:37:33.249Z,16.30
2018-07-10T07:40:01.888Z,16.20
2018-07-10T07:42:30.464Z,16.20
2018-07-10T07:44:58.964Z,16.20
2018-07-10T07:49:58.370Z,16.20
2018-07-10T07:54:57.984Z,16.20
2018-07-10T07:57:27.069Z,16.10
2018-07-10T07:59:56.131Z,16.20
2018-07-10T08:02:25.177Z,16.30
2018-07-10T08:04:54.245Z,16.40
2018-07-10T08:07:24.018Z,16.30
2018-07-10T08:09:54.421Z,16.30
2018-07-10T08:14:52.846Z,16.40
2018-07-10T08:17:24.011Z,16.40
2018-07-10T08:19:54.130Z,16.30
2018-07-10T08:22:23.503Z,16.20
2018-07-10T08:24:52.121Z,16.30
2018-07-10T08:27:21.127Z,16.30
2018-07-10T08:29:49.702Z,16.30
2018-07-10T08:32:18.329Z,16.40
2018-07-10T08:34:47.318Z,16.50
2018-07-10T08:37:15.833Z,16.60
2018-07-10T08:39:44.398Z,16.50
2018-07-10T08:42:14.554Z,16.50
2018-07-10T08:44:43.264Z,16.60
2018-07-10T08:47:11.904Z,16.50
2018-07-10T08:49:41.593Z,16.60
2018-07-10T08:52:12.149Z,16.70
2018-07-10T08:54:40.933Z,16.80
2018-07-10T08:57:09.449Z,16.90
2018-07-10T08:59:39.614Z,17.00
2018-07-10T09:02:08.152Z,17.00
2018-07-10T09:04:36.737Z,16.90
2018-07-10T09:07:06.064Z,17.00
2018-07-10T09:09:34.620Z,17.10
2018-07-10T09:12:03.283Z,17.10
2018-07-10T09:14:32.074Z,17.20
2018-07-10T09:17:00.853Z,17.20
2018-07-10T09:19:30.938Z,17.10
2018-07-10T09:24:38.082Z,17.10
2018-07-10T09:27:08.965Z,17.10
2018-07-10T09:29:41.266Z,17.10
2018-07-10T09:32:10.149Z,17.10
2018-07-10T09:34:38.684Z,17.00
2018-07-10T09:37:12.804Z,17.00
2018-07-10T09:39:42.177Z,17.00
2018-07-10T09:42:10.827Z,17.00
2018-07-10T09:44:39.589Z,16.90
2018-07-10T09:47:08.203Z,16.90
2018-07-10T09:49:36.858Z,16.90
2018-07-10T09:54:34.006Z,17.30
2018-07-10T09:57:02.821Z,17.40
2018-07-10T09:59:31.527Z,17.40
2018-07-10T10:02:05.456Z,17.50
2018-07-10T10:04:35.075Z,17.40
2018-07-10T10:07:03.672Z,17.50
2018-07-10T10:09:32.311Z,17.70
2018-07-10T10:12:02.106Z,17.40
2018-07-10T10:16:58.765Z,17.40
2018-07-10T10:19:28.109Z,17.60
2018-07-10T10:21:56.613Z,17.50
2018-07-10T10:24:25.149Z,17.80
2018-07-10T10:26:53.748Z,18.00
2018-07-10T10:29:22.702Z,18.30
2018-07-10T10:34:19.426Z,18.20
2018-07-10T10:36:48.028Z,18.20
2018-07-10T10:39:17.553Z,18.80
2018-07-10T10:44:16.151Z,18.90
2018-07-10T10:49:13.756Z,18.90
2018-07-10T10:51:42.733Z,18.70
2018-07-10T10:54:11.309Z,18.70
2018-07-10T10:59:08.109Z,18.50
2018-07-10T11:01:36.834Z,18.60
2018-07-10T11:04:05.754Z,18.50
2018-07-10T11:06:34.214Z,18.30
2018-07-10T11:09:02.918Z,18.20
2018-07-10T11:11:32.074Z,18.20
2018-07-10T11:14:02.836Z,18.10
2018-07-10T11:19:08.248Z,18.30
2018-07-10T11:21:43.138Z,18.40
2018-07-10T11:24:13.856Z,18.40
2018-07-10T11:26:45.131Z,18.40
2018-07-10T11:29:14.799Z,18.60
2018-07-10T11:31:43.431Z,18.80
2018-07-10T11:34:12.016Z,19.20
2018-07-10T11:39:10.730Z,19.00
2018-07-10T11:41:43.794Z,19.00
2018-07-10T11:44:12.400Z,18.80
2018-07-10T11:46:41.147Z,18.70
2018-07-10T11:51:38.262Z,19.00
2018-07-10T11:54:06.826Z,19.30
2018-07-10T11:56:35.751Z,19.30
2018-07-10T11:59:04.916Z,19.40
2018-07-10T12:01:35.322Z,19.30
2018-07-10T12:04:04.246Z,19.40
2018-07-10T12:06:42.662Z,19.40
2018-07-10T12:09:11.188Z,19.60
2018-07-10T12:11:40.179Z,19.80
2018-07-10T12:14:09.078Z,20.40
2018-07-10T12:16:37.748Z,20.70
2018-07-10T12:19:06.301Z,20.60
2018-07-10T12:21:35.346Z,21.10
2018-07-10T12:24:04.714Z,20.80
2018-07-10T12:26:33.671Z,20.70
2018-07-10T12:29:02.567Z,20.40
2018-07-10T12:31:31.126Z,20.30
2018-07-10T12:33:59.773Z,20.10
2018-07-10T12:36:28.556Z,20.10
2018-07-10T12:38:57.080Z,20.00
2018-07-10T12:41:26.518Z,20.50
2018-07-10T12:43:55.093Z,21.20
2018-07-10T12:46:23.667Z,21.70
2018-07-10T12:48:52.872Z,20.90
2018-07-10T12:51:21.745Z,21.60
2018-07-10T12:53:50.393Z,21.90
2018-07-10T12:56:19.143Z,21.20
2018-07-10T12:58:48.125Z,20.60
2018-07-10T13:01:17.643Z,20.50
2018-07-10T13:03:47.586Z,20.50
2018-07-10T13:06:16.531Z,20.40
2018-07-10T13:08:45.340Z,20.20
2018-07-10T13:11:13.973Z,19.90
2018-07-10T13:13:42.634Z,19.80
2018-07-10T13:16:11.221Z,20.00
2018-07-10T13:18:40.995Z,20.00
2018-07-10T13:21:10.116Z,20.00
2018-07-10T13:23:38.869Z,20.40
2018-07-10T13:26:07.558Z,20.50
2018-07-10T13:28:36.221Z,20.30
2018-07-10T13:31:04.804Z,20.00
2018-07-10T13:36:01.527Z,20.50
2018-07-10T13:38:30.048Z,20.40
2018-07-10T13:41:00.881Z,21.00
2018-07-10T13:43:29.410Z,21.00
2018-07-10T13:45:58.008Z,21.10
2018-07-10T13:48:26.693Z,21.00
2018-07-10T13:50:55.796Z,21.60
2018-07-10T13:53:24.948Z,21.60
2018-07-10T13:55:53.579Z,21.90
2018-07-10T13:58:26.919Z,21.60
2018-07-10T14:01:00.378Z,21.30
2018-07-10T14:03:29.055Z,21.20
2018-07-10T14:05:57.739Z,21.50
2018-07-10T14:08:26.599Z,21.80
2018-07-10T14:10:55.517Z,21.30
2018-07-10T14:13:24.400Z,21.80
2018-07-10T14:15:52.988Z,21.70
2018-07-10T14:18:21.700Z,21.70
2018-07-10T14:20:56.027Z,21.80
2018-07-10T14:23:24.832Z,22.30
2018-07-10T14:25:53.414Z,21.70
2018-07-10T14:28:22.134Z,21.10
2018-07-10T14:30:50.965Z,21.10
2018-07-10T14:33:20.302Z,21.10
2018-07-10T14:35:48.943Z,21.30
2018-07-10T14:38:20.501Z,21.70
2018-07-10T14:40:49.836Z,21.20
2018-07-10T14:43:21.933Z,21.10
2018-07-10T14:45:52.149Z,21.10
2018-07-10T14:48:21.079Z,21.30
2018-07-10T14:53:20.443Z,21.40
2018-07-10T14:55:49.236Z,21.70
2018-07-10T14:58:17.849Z,22.10
2018-07-10T15:00:46.491Z,22.00
2018-07-10T15:03:15.125Z,22.30
2018-07-10T15:05:43.681Z,22.20
2018-07-10T15:08:13.312Z,22.00
2018-07-10T15:10:41.970Z,21.90
2018-07-10T15:13:10.518Z,21.70
2018-07-10T15:15:39.673Z,21.70
2018-07-10T15:18:15.129Z,22.00
2018-07-10T15:20:44.079Z,22.10
2018-07-10T15:23:12.744Z,21.80
2018-07-10T15:33:06.243Z,21.70
2018-07-10T15:38:03.197Z,21.10
2018-07-10T15:45:28.241Z,20.70
2018-07-10T15:47:58.176Z,20.60
2018-07-10T15:50:27.069Z,20.60
2018-07-10T15:52:55.581Z,20.70
2018-07-10T15:55:24.414Z,20.70
2018-07-10T15:57:53.070Z,20.70
2018-07-10T16:00:21.656Z,20.60
2018-07-10T16:02:50.267Z,20.50
2018-07-10T16:07:47.346Z,20.40
2018-07-10T16:10:16.261Z,20.40
2018-07-10T16:12:46.141Z,20.30
2018-07-10T16:15:15.146Z,20.20
2018-07-10T16:17:43.733Z,20.40
2018-07-10T16:20:12.393Z,20.40
2018-07-10T16:22:42.343Z,20.50
2018-07-10T16:25:16.616Z,20.50
2018-07-10T16:27:46.524Z,20.50
2018-07-10T16:30:19.847Z,20.40
2018-07-10T16:35:17.021Z,20.30
2018-07-10T16:37:45.921Z,20.40
2018-07-10T16:40:15.608Z,20.50
2018-07-10T16:42:48.195Z,20.60
2018-07-10T16:45:31.902Z,20.60
2018-07-10T16:48:22.393Z,20.60
2018-07-10T16:51:27.357Z,20.70
2018-07-10T16:54:00.038Z,21.00
2018-07-10T16:56:29.739Z,21.00
2018-07-10T16:58:59.180Z,20.70
2018-07-10T17:01:29.408Z,20.40
2018-07-10T17:04:01.367Z,20.40
2018-07-10T17:06:29.965Z,20.60
2018-07-10T17:08:58.808Z,20.60
2018-07-10T17:11:27.576Z,20.70
2018-07-10T17:16:30.495Z,20.80
2018-07-10T17:18:59.177Z,20.90
2018-07-10T17:21:28.663Z,20.50
2018-07-10T17:24:00.648Z,20.40
2018-07-10T17:26:29.426Z,20.20
2018-07-10T17:28:58.318Z,20.10
2018-07-10T17:31:26.906Z,20.00
2018-07-10T17:33:55.542Z,20.00
2018-07-10T17:36:24.240Z,20.00
2018-07-10T17:38:52.906Z,19.90
2018-07-10T17:41:21.590Z,19.90
2018-07-10T17:43:50.218Z,19.90
2018-07-10T17:46:20.051Z,19.80
2018-07-10T17:48:48.934Z,19.80
2018-07-10T17:51:17.640Z,19.80
2018-07-10T17:53:46.399Z,19.70
2018-07-10T17:56:15.464Z,19.70
2018-07-10T17:58:44.213Z,19.60
2018-07-10T18:01:12.883Z,19.60
2018-07-10T18:03:41.494Z,19.70
2018-07-10T18:06:10.604Z,19.70
2018-07-10T18:08:39.223Z,19.70
2018-07-10T18:11:08.070Z,19.70
2018-07-10T18:13:36.684Z,19.70
2018-07-10T18:16:05.639Z,19.60
2018-07-10T18:18:34.646Z,19.70
2018-07-10T18:21:03.222Z,19.90
2018-07-10T18:23:31.844Z,19.80
2018-07-10T18:26:00.473Z,19.80
2018-07-10T18:28:29.060Z,19.70
2018-07-10T18:30:57.828Z,19.60
2018-07-10T18:33:26.491Z,19.60
2018-07-10T18:35:56.225Z,19.60
2018-07-10T18:38:24.901Z,19.50
2018-07-10T18:43:22.589Z,19.50
2018-07-10T18:45:51.255Z,19.50
2018-07-10T18:48:24.878Z,19.40
2018-07-10T18:53:21.704Z,19.30
2018-07-10T18:55:51.627Z,19.30
2018-07-10T18:58:28.344Z,19.30
2018-07-10T19:01:05.825Z,19.30
2018-07-10T19:03:35.893Z,19.20
2018-07-10T19:06:09.971Z,19.10
2018-07-10T19:08:40.368Z,19.10
2018-07-10T19:11:09.678Z,19.10
2018-07-10T19:13:38.307Z,19.00
2018-07-10T19:16:06.954Z,19.00
2018-07-10T19:18:36.087Z,18.90
2018-07-10T19:21:26.521Z,18.90
2018-07-10T19:23:57.915Z,18.90
2018-07-10T19:26:28.319Z,18.80
2018-07-10T19:29:13.712Z,18.80
2018-07-10T19:31:42.588Z,18.80
2018-07-10T19:34:12.103Z,18.70
2018-07-10T19:36:40.902Z,18.70
2018-07-10T19:39:09.669Z,18.70
2018-07-10T19:41:38.323Z,18.60
2018-07-10T19:44:06.913Z,18.60
2018-07-10T19:49:06.069Z,18.50
2018-07-10T19:51:34.651Z,18.40
2018-07-10T19:54:14.771Z,18.30
2018-07-10T19:56:43.475Z,18.30
2018-07-10T19:59:14.338Z,18.40
2018-07-10T20:02:01.705Z,18.20
2018-07-10T20:04:58.033Z,18.00
2018-07-10T20:07:30.291Z,18.10
2018-07-10T20:10:12.655Z,18.10
2018-07-10T20:12:45.446Z,18.10
2018-07-10T20:16:22.987Z,18.00
2018-07-10T20:21:48.251Z,17.70
2018-07-10T20:24:20.008Z,17.70
2018-07-10T20:27:01.526Z,17.70
2018-07-10T20:29:47.010Z,17.70
2018-07-10T20:32:21.833Z,17.70
2018-07-10T20:35:00.280Z,17.70
2018-07-10T20:37:30.741Z,17.70
2018-07-10T20:39:59.941Z,17.60
2018-07-10T20:42:35.085Z,17.50
2018-07-10T20:47:53.838Z,17.40
2018-07-10T20:50:32.039Z,17.30
2018-07-10T20:53:34.384Z,17.30
2018-07-10T20:56:18.650Z,17.30
2018-07-10T20:58:52.184Z,17.20
2018-07-10T21:01:29.869Z,17.20
2018-07-10T21:04:06.002Z,17.30
2018-07-10T21:06:47.438Z,17.30
2018-07-10T21:09:17.948Z,17.40
2018-07-10T21:12:09.176Z,17.30
2018-07-10T21:14:51.694Z,17.30
2018-07-10T21:17:24.814Z,17.30
2018-07-10T21:20:01.862Z,17.30
2018-07-10T21:23:12.709Z,17.30
2018-07-10T21:25:56.680Z,17.30
2018-07-10T21:28:40.070Z,17.20
2018-07-10T21:31:15.585Z,16.80
2018-07-10T21:33:51.127Z,16.70
2018-07-10T21:36:23.406Z,16.50
2018-07-10T21:39:03.244Z,16.40
2018-07-10T21:41:43.608Z,16.30
2018-07-10T21:46:27.616Z,16.20
2018-07-10T21:49:06.338Z,16.00
2018-07-10T21:51:35.337Z,15.80
2018-07-10T21:54:04.004Z,16.00
2018-07-10T21:56:33.410Z,15.90
2018-07-10T21:59:01.986Z,15.80
2018-07-10T22:01:44.146Z,15.80
2018-07-10T22:04:17.656Z,15.70
2018-07-10T22:06:48.730Z,15.60
2018-07-10T22:09:17.943Z,15.80
2018-07-10T22:11:47.066Z,15.70
2018-07-10T22:14:16.786Z,15.40
2018-07-10T22:16:45.328Z,15.20
2018-07-10T22:19:14.686Z,15.10
2018-07-10T22:24:11.805Z,14.90
2018-07-10T22:26:40.481Z,15.10
2018-07-10T22:29:09.426Z,14.90
2018-07-10T22:31:43.443Z,14.90
2018-07-10T22:34:11.938Z,14.90
2018-07-10T22:39:08.814Z,14.80
2018-07-10T22:41:38.893Z,14.80
2018-07-10T22:44:07.442Z,14.90
2018-07-10T22:46:36.944Z,14.90
2018-07-10T22:49:09.317Z,14.90
2018-07-10T22:51:37.765Z,14.90
2018-07-10T22:54:07.000Z,14.90
2018-07-10T22:56:35.509Z,15.00
2018-07-10T22:59:04.306Z,15.00
2018-07-10T23:01:35.420Z,15.00
2018-07-10T23:04:03.946Z,14.90
2018-07-10T23:09:01.352Z,14.80
2018-07-10T23:11:29.959Z,14.80
2018-07-10T23:13:58.470Z,14.70
2018-07-10T23:16:27.061Z,14.80
2018-07-10T23:21:23.883Z,14.80
2018-07-10T23:23:53.326Z,14.90
2018-07-10T23:26:21.998Z,15.00
2018-07-10T23:28:52.653Z,15.00
2018-07-10T23:31:23.310Z,15.00
2018-07-10T23:34:25.538Z,15.10
2018-07-10T23:36:59.083Z,15.10
2018-07-10T23:39:33.417Z,14.90
2018-07-10T23:42:10.702Z,14.80
2018-07-10T23:44:47.141Z,14.80
2018-07-10T23:47:23.761Z,14.80
2018-07-10T23:50:28.288Z,15.00
2018-07-10T23:54:00.592Z,15.00
2018-07-10T23:56:29.169Z,14.90
2018-07-10T23:58:57.826Z,14.70
